Clearwater, FL

8:31 PM EDT on August 21, 2014 (GMT -0400)
N San Remo | Change Station
CLOSE
Current Station
Personal Weather Station
Location: Clearwater, FL
Elevation: 35 ft
Nearby Weather Stations

Elev 35 ft 27.97 °N, 82.78 °W | Updated 2 minutes ago

Overcast
Overcast
89.1 °F
Feels Like 102 °F
N
0.0
Wind Variable Wind from SSE
Gusts 0.0 mph

Today
High -- | Low -- °F
--% Chance of Precip.
Yesterday
High -- | Low -- °F
Precip. -- in
7:04 AM 8:03 PM
Waning Crescent, 11% visible
Pressure 30.12 in
Visibility 10.0 miles
Clouds Mostly Cloudy 3600 ft
Mostly Cloudy 7500 ft
Overcast 9500 ft
Heat Index 102 °F
Dew Point 77 °F
Humidity 68%
Rainfall 0.00 in
Snow Depth Not available.
UV 0.0 out of 12
Pollen 4.50 out of 12
Air Quality Not available.
Flu Activity Not available.
METAR KPIE 212353Z 14015G24KT 10SM BKN036 BKN075 OVC095 28/22 A3011 RMK AO2 WSHFT 2336 LTG DSNT E AND SE SLP197 T02780222 10350 20278 53024

More Conditions Fewer Conditions

Pressure 30.12 in
Visibility 10.0 miles
Clouds Mostly Cloudy 3600 ft
Mostly Cloudy 7500 ft
Overcast 9500 ft
Heat Index 102 °F
Dew Point 77 °F
Humidity 68%
Rainfall 0.00 in
Snow Depth Not available.
UV 0.0 out of 12
Pollen 4.50 out of 12
Air Quality Not available.
Flu Activity Not available.
METAR KPIE 212353Z 14015G24KT 10SM BKN036 BKN075 OVC095 28/22 A3011 RMK AO2 WSHFT 2336 LTG DSNT E AND SE SLP197 T02780222 10350 20278 53024

More Conditions Fewer Conditions

10-Day Weather Forecast

Almanac

Astronomy

Aug. 21, 2014 Rise Set
Actual Time 7:04 AM EDT 8:03 PM EDT
Civil Twilight 6:40 AM EDT 8:27 PM EDT
Nautical Twilight 6:11 AM EDT 8:56 PM EDT
Astronomical Twilight 5:41 AM EDT 9:26 PM EDT
Moon 3:42 AM EDT (8/21) 5:24 PM EDT (8/21)
Length of Visible Light 13h 47m
Length of Day
12h 59m
Tomorrow will be 1m 31s shorter.
Waning Crescent, 11% of the Moon is Illuminated
Today
Waning Crescent
Aug 25
New
Sep 2
First Quarter
Sep 8
Full
Sep 15
Last Quarter

Today's Extremes

State Highs State Lows

Community

WunderPhotos

Upload Photos

1,746,073 photos uploaded!

Nearby

Air Quality

  Air Quality AQ Index Pollutant
Thursday Moderate
PM2.5
Thursday Good
OZONE
Friday Moderate
PM2.5
Friday Good
OZONE

Snow Depth

Station Depth Elevation
No new snow has been reported.

Earthquake Activity

City Distance Mag. Time & Date
No recent earthquake activity has been reported nearby.
Minimum magnitude displayed is 2.5.

Coastal Water Temperatures

Place Temperature
Clearwater Beach, FL 91.0 °F
Port Manatee, FL 90.0 °F
St Petersburg, FL 91.9 °F
Old Port Tampa, FL 90.0 °F
McKay Bay Entrance, FL 90.0 °F

Nearby Weather Stations